Time;durP1;ratioP1;P1;durP2;ratioP2;P2;SDS_P1;SDS_P2;PMS_P1;PMS_P2;Temp;Humidity;BMP_temperature;BMP_pressure;BME280_temperature;BME280_humidity;BME280_pressure;Samples;Min_cycle;Max_cycle;Signal;HPM_P1;HPM_P2
2023/09/13 00:01:01;;;;;;;15.47;13.50;;;;;;;;;;5036791;28;20456;-77
2023/09/13 00:03:28;;;;;;;13.77;12.37;;;;;;;;;;5043877;28;20481;-79
2023/09/13 00:05:56;;;;;;;14.93;12.80;;;;;;;;;;5043592;28;20449;-79
2023/09/13 00:08:23;;;;;;;15.27;13.20;;;;;;;;;;5037458;28;20496;-78
2023/09/13 00:10:51;;;;;;;13.87;10.50;;;;;;;;;;5037816;28;20512;-78
2023/09/13 00:13:20;;;;;;;12.50;10.53;;;;;;;;;;5037514;28;20470;-78
2023/09/13 00:15:47;;;;;;;12.93;11.40;;;;;;;;;;5037744;28;20822;-78
2023/09/13 00:18:16;;;;;;;13.77;12.03;;;;;;;;;;5037232;28;20450;-78
2023/09/13 00:20:44;;;;;;;14.63;12.93;;;;;;;;;;5037349;28;20454;-78
2023/09/13 00:23:11;;;;;;;15.07;11.67;;;;;;;;;;5037131;28;20469;-78
2023/09/13 00:25:38;;;;;;;14.70;12.10;;;;;;;;;;5037660;28;20457;-77
2023/09/13 00:28:07;;;;;;;15.53;12.43;;;;;;;;;;5037204;28;20485;-77
2023/09/13 00:30:34;;;;;;;13.73;12.13;;;;;;;;;;5037099;28;20457;-78
2023/09/13 00:33:02;;;;;;;15.33;13.73;;;;;;;;;;5037606;28;20527;-78
2023/09/13 00:35:30;;;;;;;17.23;11.10;;;;;;;;;;5037078;28;20462;-77
2023/09/13 00:37:57;;;;;;;12.60;11.37;;;;;;;;;;5037456;28;20962;-77
2023/09/13 00:40:24;;;;;;;12.27;10.90;;;;;;;;;;5036764;28;20465;-78
2023/09/13 00:42:51;;;;;;;13.03;11.40;;;;;;;;;;5037223;28;20983;-78
2023/09/13 00:45:20;;;;;;;11.53;10.53;;;;;;;;;;5036999;28;20453;-78
2023/09/13 00:47:47;;;;;;;13.77;12.40;;;;;;;;;;5037113;28;20489;-78
2023/09/13 00:50:15;;;;;;;12.40;11.10;;;;;;;;;;5036471;28;20450;-78
2023/09/13 00:52:42;;;;;;;11.57;10.40;;;;;;;;;;5036921;28;20485;-78
2023/09/13 00:55:10;;;;;;;13.83;10.53;;;;;;;;;;5036663;28;20458;-78
2023/09/13 00:57:38;;;;;;;11.27;10.17;;;;;;;;;;5036748;28;20442;-78
2023/09/13 01:00:10;;;;;;;10.23;9.33;;;;;;;;;;5036661;28;20454;-78
2023/09/13 01:02:39;;;;;;;14.20;9.37;;;;;;;;;;5036466;28;20516;-78
2023/09/13 01:05:07;;;;;;;12.47;11.20;;;;;;;;;;5036715;28;20456;-78
2023/09/13 01:07:34;;;;;;;12.10;9.90;;;;;;;;;;5036449;28;20486;-78
2023/09/13 01:10:01;;;;;;;10.87;8.40;;;;;;;;;;5036589;28;20942;-78
2023/09/13 01:12:29;;;;;;;9.33;7.80;;;;;;;;;;5035974;28;20458;-78
2023/09/13 01:14:56;;;;;;;10.27;8.63;;;;;;;;;;5036168;28;20456;-78
2023/09/13 01:17:28;;;;;;;9.50;7.63;;;;;;;;;;5036056;28;20951;-78
2023/09/13 01:20:03;;;;;;;10.27;7.17;;;;;;;;;;5036082;28;20464;-78
2023/09/13 01:22:48;;;;;;;8.97;5.87;;;;;;;;;;5036409;28;20547;-78
2023/09/13 01:25:23;;;;;;;12.40;6.70;;;;;;;;;;5036053;28;20454;-78
2023/09/13 01:27:54;;;;;;;7.40;5.67;;;;;;;;;;5036849;28;20485;-78
2023/09/13 01:30:24;;;;;;;9.43;6.57;;;;;;;;;;5036825;28;20450;-79
2023/09/13 01:32:52;;;;;;;9.27;8.47;;;;;;;;;;5035865;28;20473;-78
2023/09/13 01:41:12;;;;;;;8.43;7.47;;;;;;;;;;5293001;22;20499;-81
2023/09/13 01:43:41;;;;;;;8.73;6.50;;;;;;;;;;5063607;28;20547;-81
2023/09/13 01:46:13;;;;;;;10.67;7.20;;;;;;;;;;5053880;28;20864;-81
2023/09/13 01:48:41;;;;;;;7.13;6.13;;;;;;;;;;5072698;28;20910;-81
2023/09/13 01:51:09;;;;;;;9.60;8.70;;;;;;;;;;5053899;28;20843;-81
2023/09/13 01:53:43;;;;;;;11.10;10.00;;;;;;;;;;5058403;28;20453;-81
2023/09/13 01:56:11;;;;;;;11.70;10.13;;;;;;;;;;5047731;28;20465;-81
2023/09/13 01:58:38;;;;;;;18.90;10.77;;;;;;;;;;5053974;28;20449;-81
2023/09/13 02:01:05;;;;;;;10.63;9.47;;;;;;;;;;5050699;28;20556;-81
2023/09/13 02:03:34;;;;;;;9.70;8.53;;;;;;;;;;5050689;28;20509;-81
2023/09/13 02:06:01;;;;;;;9.70;7.93;;;;;;;;;;5050659;28;20465;-81
2023/09/13 02:08:29;;;;;;;8.67;7.77;;;;;;;;;;5058955;28;20512;-81
2023/09/13 02:10:56;;;;;;;9.27;7.20;;;;;;;;;;5057027;28;20467;-81
2023/09/13 02:13:23;;;;;;;15.30;7.93;;;;;;;;;;5046761;28;20501;-81
2023/09/13 02:15:51;;;;;;;10.87;7.90;;;;;;;;;;5055736;28;20471;-81
2023/09/13 02:18:18;;;;;;;17.70;10.23;;;;;;;;;;5047054;28;20446;-81
2023/09/13 02:20:47;;;;;;;13.50;10.33;;;;;;;;;;5054835;28;20476;-81
2023/09/13 02:23:14;;;;;;;13.10;10.30;;;;;;;;;;5042784;28;20457;-80
2023/09/13 02:25:44;;;;;;;10.97;9.70;;;;;;;;;;5050600;28;20476;-81
2023/09/13 02:28:11;;;;;;;11.47;10.20;;;;;;;;;;5058170;28;20827;-82
2023/09/13 02:30:39;;;;;;;14.57;9.53;;;;;;;;;;5051685;28;20478;-81
2023/09/13 02:33:06;;;;;;;11.33;10.23;;;;;;;;;;5055483;28;20460;-81
2023/09/13 02:35:33;;;;;;;11.47;8.60;;;;;;;;;;5053394;28;20467;-81
2023/09/13 02:38:02;;;;;;;12.30;9.53;;;;;;;;;;5057673;28;20449;-80
2023/09/13 02:40:29;;;;;;;12.20;7.23;;;;;;;;;;5051676;28;20565;-81
2023/09/13 02:42:56;;;;;;;7.97;6.57;;;;;;;;;;5047368;28;20454;-81
2023/09/13 02:45:23;;;;;;;8.03;5.57;;;;;;;;;;5052724;28;20830;-80
2023/09/13 02:47:51;;;;;;;20.77;5.73;;;;;;;;;;5054635;28;20486;-80
2023/09/13 02:50:18;;;;;;;6.70;6.00;;;;;;;;;;5053338;28;20509;-81
2023/09/13 02:52:45;;;;;;;9.77;6.17;;;;;;;;;;5053775;28;20463;-80
2023/09/13 02:55:14;;;;;;;11.37;6.50;;;;;;;;;;5054079;28;20457;-81
2023/09/13 02:57:41;;;;;;;6.90;5.43;;;;;;;;;;5046168;28;20446;-81
2023/09/13 03:00:09;;;;;;;5.63;5.07;;;;;;;;;;5057001;28;20469;-81
2023/09/13 03:02:36;;;;;;;7.53;5.30;;;;;;;;;;5058511;28;20516;-80
2023/09/13 03:05:05;;;;;;;8.30;6.00;;;;;;;;;;5038958;28;20461;-80
2023/09/13 03:07:32;;;;;;;7.00;5.73;;;;;;;;;;5057655;28;20464;-81
2023/09/13 03:09:59;;;;;;;5.93;5.37;;;;;;;;;;5054350;28;20483;-81
2023/09/13 03:12:27;;;;;;;7.10;5.50;;;;;;;;;;5056604;28;20465;-81
2023/09/13 03:14:56;;;;;;;6.30;5.70;;;;;;;;;;5051463;28;20446;-81
2023/09/13 03:17:23;;;;;;;10.00;5.77;;;;;;;;;;5053972;28;20465;-80
2023/09/13 03:19:50;;;;;;;6.93;5.30;;;;;;;;;;5061717;28;20582;-81
2023/09/13 03:22:17;;;;;;;10.40;6.03;;;;;;;;;;5050181;28;20459;-80
2023/09/13 03:24:45;;;;;;;7.37;4.73;;;;;;;;;;5049304;28;20488;-81
2023/09/13 03:27:12;;;;;;;10.63;5.50;;;;;;;;;;5061127;28;20467;-81
2023/09/13 03:29:40;;;;;;;6.30;5.70;;;;;;;;;;5061224;28;20556;-81
2023/09/13 03:32:08;;;;;;;5.60;4.10;;;;;;;;;;5041373;28;20481;-81
2023/09/13 03:34:35;;;;;;;4.80;4.30;;;;;;;;;;5056359;28;20461;-81
2023/09/13 03:37:03;;;;;;;4.83;4.37;;;;;;;;;;5053112;28;20468;-81
2023/09/13 03:39:31;;;;;;;6.20;4.73;;;;;;;;;;5060539;28;20457;-81
2023/09/13 03:41:58;;;;;;;6.00;4.30;;;;;;;;;;5053086;28;20483;-81
2023/09/13 03:44:25;;;;;;;8.57;4.30;;;;;;;;;;5052658;28;20551;-81
2023/09/13 03:46:55;;;;;;;4.47;3.67;;;;;;;;;;5060259;28;20479;-80
2023/09/13 03:49:23;;;;;;;5.57;4.63;;;;;;;;;;5059800;28;20588;-80
2023/09/13 03:51:50;;;;;;;7.80;4.00;;;;;;;;;;5060469;28;20449;-81
2023/09/13 03:54:17;;;;;;;6.57;3.90;;;;;;;;;;5056394;28;20951;-80
2023/09/13 03:56:44;;;;;;;10.40;4.40;;;;;;;;;;5056287;28;20437;-80
2023/09/13 03:59:11;;;;;;;7.00;4.07;;;;;;;;;;5060133;28;20445;-80
2023/09/13 04:01:38;;;;;;;4.40;3.50;;;;;;;;;;5060893;28;20492;-81
2023/09/13 04:04:07;;;;;;;4.40;4.00;;;;;;;;;;5049809;28;20536;-80
2023/09/13 04:06:34;;;;;;;3.93;3.40;;;;;;;;;;5046358;28;20890;-80
2023/09/13 04:09:02;;;;;;;6.77;4.53;;;;;;;;;;5050964;28;20871;-81
2023/09/13 04:11:29;;;;;;;6.10;4.30;;;;;;;;;;5060432;28;20477;-81
2023/09/13 04:13:57;;;;;;;9.30;4.73;;;;;;;;;;5051181;28;20464;-81
2023/09/13 04:16:24;;;;;;;11.30;4.07;;;;;;;;;;5053332;28;20947;-81
2023/09/13 04:18:51;;;;;;;5.63;4.10;;;;;;;;;;5060212;28;20457;-81
2023/09/13 04:21:20;;;;;;;5.03;4.50;;;;;;;;;;5047645;28;20853;-82
2023/09/13 04:23:47;;;;;;;6.30;3.83;;;;;;;;;;5056754;28;20524;-82
2023/09/13 04:26:20;;;;;;;5.60;4.10;;;;;;;;;;5060099;28;20531;-82
2023/09/13 04:28:47;;;;;;;5.10;4.10;;;;;;;;;;5043441;28;20501;-82
2023/09/13 04:31:14;;;;;;;6.00;3.40;;;;;;;;;;5059801;28;20464;-81
2023/09/13 04:33:48;;;;;;;5.80;4.37;;;;;;;;;;5051411;28;20544;-82
2023/09/13 04:36:15;;;;;;;7.23;4.40;;;;;;;;;;5044615;28;20464;-80
2023/09/13 04:38:44;;;;;;;6.13;3.93;;;;;;;;;;5060093;28;20527;-81
2023/09/13 04:41:14;;;;;;;7.90;5.20;;;;;;;;;;5051597;28;20506;-81
2023/09/13 04:43:42;;;;;;;8.30;6.23;;;;;;;;;;5052284;28;20449;-82
2023/09/13 04:46:09;;;;;;;4.00;3.60;;;;;;;;;;5058354;28;20473;-82
2023/09/13 04:48:37;;;;;;;5.10;4.27;;;;;;;;;;5055556;28;20489;-82
2023/09/13 04:51:04;;;;;;;5.90;4.93;;;;;;;;;;5043823;28;20516;-83
2023/09/13 04:53:33;;;;;;;5.87;4.23;;;;;;;;;;5059562;28;20547;-82
2023/09/13 04:56:02;;;;;;;5.87;4.20;;;;;;;;;;5050887;28;20519;-82
2023/09/13 04:58:30;;;;;;;8.63;6.07;;;;;;;;;;5047301;28;20446;-81
2023/09/13 05:00:57;;;;;;;3.83;3.30;;;;;;;;;;5048842;28;20470;-82
2023/09/13 05:03:24;;;;;;;3.80;3.43;;;;;;;;;;5054569;28;20589;-82
2023/09/13 05:05:52;;;;;;;5.93;4.77;;;;;;;;;;5056252;28;20451;-82
2023/09/13 05:08:19;;;;;;;5.53;4.47;;;;;;;;;;5059011;28;20492;-82
2023/09/13 05:10:46;;;;;;;4.60;3.73;;;;;;;;;;5051141;28;20561;-82
2023/09/13 05:13:15;;;;;;;3.70;3.03;;;;;;;;;;5043487;28;20524;-83
2023/09/13 05:15:44;;;;;;;5.10;4.10;;;;;;;;;;5060225;28;20453;-82
2023/09/13 05:18:11;;;;;;;5.70;4.50;;;;;;;;;;5058942;28;20461;-83
2023/09/13 05:20:38;;;;;;;6.40;5.10;;;;;;;;;;5051901;28;20572;-81
2023/09/13 05:23:06;;;;;;;7.07;4.50;;;;;;;;;;5049381;28;20465;-83
2023/09/13 05:25:33;;;;;;;6.07;4.57;;;;;;;;;;5053083;28;20577;-82
2023/09/13 05:28:00;;;;;;;6.53;3.67;;;;;;;;;;5056001;28;20451;-82
2023/09/13 05:30:32;;;;;;;5.10;4.20;;;;;;;;;;5058127;28;20563;-82
2023/09/13 05:32:59;;;;;;;5.67;4.27;;;;;;;;;;5050051;28;20475;-80
2023/09/13 05:35:27;;;;;;;5.87;4.33;;;;;;;;;;5058708;28;20903;-81
2023/09/13 05:37:54;;;;;;;5.00;3.80;;;;;;;;;;5058838;28;20452;-82
2023/09/13 05:40:21;;;;;;;5.70;4.30;;;;;;;;;;5045149;28;20510;-82
2023/09/13 05:42:48;;;;;;;6.43;4.03;;;;;;;;;;5038195;28;20449;-83
2023/09/13 05:45:15;;;;;;;7.27;3.93;;;;;;;;;;5058172;28;20878;-82
2023/09/13 05:47:44;;;;;;;11.30;4.23;;;;;;;;;;5058184;28;20453;-82
2023/09/13 05:50:11;;;;;;;5.37;4.20;;;;;;;;;;5054645;28;20493;-81
2023/09/13 05:52:40;;;;;;;6.37;3.83;;;;;;;;;;5047044;28;20462;-81
2023/09/13 05:55:08;;;;;;;11.40;3.80;;;;;;;;;;5046997;28;20459;-81
2023/09/13 05:57:35;;;;;;;9.47;4.40;;;;;;;;;;5045316;28;20475;-82
2023/09/13 06:00:02;;;;;;;7.37;5.00;;;;;;;;;;5053558;28;20468;-81
2023/09/13 06:02:29;;;;;;;6.87;5.37;;;;;;;;;;5047950;28;20556;-81
2023/09/13 06:04:58;;;;;;;8.60;4.67;;;;;;;;;;5038041;28;20545;-81
2023/09/13 06:07:25;;;;;;;8.27;4.60;;;;;;;;;;5043324;28;20463;-82
2023/09/13 06:09:53;;;;;;;5.60;4.73;;;;;;;;;;5056036;28;20876;-82
2023/09/13 06:12:20;;;;;;;7.50;4.77;;;;;;;;;;5041306;28;20463;-82
2023/09/13 06:14:51;;;;;;;5.00;4.40;;;;;;;;;;5057029;28;20483;-81
2023/09/13 06:17:18;;;;;;;5.13;4.20;;;;;;;;;;5052799;28;20496;-82
2023/09/13 06:19:47;;;;;;;3.60;3.30;;;;;;;;;;5052631;28;20499;-82
2023/09/13 06:22:17;;;;;;;4.87;4.40;;;;;;;;;;5040039;28;20453;-82
2023/09/13 06:24:44;;;;;;;5.23;3.87;;;;;;;;;;5048558;28;20812;-82
2023/09/13 06:27:11;;;;;;;14.40;3.97;;;;;;;;;;5047438;28;20945;-82
2023/09/13 06:29:38;;;;;;;5.33;4.40;;;;;;;;;;5049257;28;20502;-82
2023/09/13 06:32:06;;;;;;;5.30;4.37;;;;;;;;;;5054936;28;20458;-83
2023/09/13 06:34:33;;;;;;;4.13;3.73;;;;;;;;;;5056572;28;20528;-82
2023/09/13 06:37:00;;;;;;;5.20;4.80;;;;;;;;;;5039748;28;20457;-81
2023/09/13 06:39:29;;;;;;;4.33;4.03;;;;;;;;;;5046997;28;21020;-82
2023/09/13 06:41:56;;;;;;;3.77;3.43;;;;;;;;;;5038826;28;20475;-81
2023/09/13 06:44:23;;;;;;;4.57;3.57;;;;;;;;;;5049790;28;20463;-83
2023/09/13 06:46:50;;;;;;;5.27;4.63;;;;;;;;;;5057194;28;20456;-82
2023/09/13 06:49:18;;;;;;;6.50;4.30;;;;;;;;;;5040576;28;20500;-82
2023/09/13 06:51:45;;;;;;;7.80;3.40;;;;;;;;;;5048263;28;20527;-82
2023/09/13 06:54:12;;;;;;;7.93;4.30;;;;;;;;;;5040018;28;20535;-81
2023/09/13 06:56:42;;;;;;;9.33;4.57;;;;;;;;;;5048698;28;20452;-82
2023/09/13 06:59:09;;;;;;;8.13;4.50;;;;;;;;;;5056421;28;20453;-81
2023/09/13 07:01:36;;;;;;;5.33;4.83;;;;;;;;;;5056993;28;20467;-82
2023/09/13 07:04:03;;;;;;;5.40;4.90;;;;;;;;;;5056334;28;20457;-82
2023/09/13 07:06:31;;;;;;;6.47;5.83;;;;;;;;;;5056929;28;20450;-82
2023/09/13 07:08:58;;;;;;;8.73;6.00;;;;;;;;;;5056719;28;21045;-81
2023/09/13 07:11:25;;;;;;;8.40;5.20;;;;;;;;;;5057008;28;20580;-82
2023/09/13 07:13:54;;;;;;;7.40;5.30;;;;;;;;;;5047954;28;20468;-82
2023/09/13 07:16:21;;;;;;;8.60;5.70;;;;;;;;;;5049241;28;20461;-82
2023/09/13 07:18:49;;;;;;;5.90;5.30;;;;;;;;;;5048838;28;20460;-80
2023/09/13 07:21:19;;;;;;;5.13;4.33;;;;;;;;;;5057593;28;20473;-82
2023/09/13 07:23:46;;;;;;;7.40;4.80;;;;;;;;;;5048927;28;20456;-82
2023/09/13 07:26:14;;;;;;;5.33;4.83;;;;;;;;;;5040748;28;20459;-82
2023/09/13 07:28:41;;;;;;;5.07;4.57;;;;;;;;;;5048095;28;20544;-82
2023/09/13 07:31:10;;;;;;;8.20;5.63;;;;;;;;;;5037074;28;20494;-82
2023/09/13 07:33:37;;;;;;;10.03;5.97;;;;;;;;;;5037242;28;20816;-81
2023/09/13 07:36:04;;;;;;;5.23;4.83;;;;;;;;;;5055398;28;20836;-80
2023/09/13 07:38:31;;;;;;;6.23;4.83;;;;;;;;;;5057466;28;20455;-82
2023/09/13 07:40:59;;;;;;;5.47;4.90;;;;;;;;;;5048165;28;20568;-80
2023/09/13 07:43:27;;;;;;;12.77;5.30;;;;;;;;;;5042784;28;20799;-80
2023/09/13 07:45:54;;;;;;;6.93;5.47;;;;;;;;;;5045354;28;20553;-78
2023/09/13 07:48:23;;;;;;;6.10;4.83;;;;;;;;;;5049585;28;20454;-78
2023/09/13 07:50:50;;;;;;;6.20;4.23;;;;;;;;;;5050174;28;20492;-78
2023/09/13 07:53:17;;;;;;;6.03;5.30;;;;;;;;;;5045771;28;20452;-78
2023/09/13 07:55:44;;;;;;;6.03;5.50;;;;;;;;;;5054187;28;20461;-78
2023/09/13 07:58:11;;;;;;;6.10;5.50;;;;;;;;;;5038523;28;20469;-78
2023/09/13 08:00:38;;;;;;;6.13;5.53;;;;;;;;;;5047936;28;20509;-78
2023/09/13 08:03:06;;;;;;;5.90;4.87;;;;;;;;;;5055286;28;20456;-80
2023/09/13 08:05:34;;;;;;;13.60;6.40;;;;;;;;;;5048136;28;20959;-80
2023/09/13 08:08:03;;;;;;;8.30;5.73;;;;;;;;;;5057256;28;20543;-79
2023/09/13 08:10:30;;;;;;;8.30;5.27;;;;;;;;;;5051338;28;20496;-80
2023/09/13 08:12:57;;;;;;;6.97;5.17;;;;;;;;;;5059840;28;20514;-80
2023/09/13 08:15:25;;;;;;;7.97;6.07;;;;;;;;;;5055822;28;20442;-78
2023/09/13 08:17:52;;;;;;;7.67;5.80;;;;;;;;;;5038959;28;20464;-80
2023/09/13 08:20:19;;;;;;;8.50;6.00;;;;;;;;;;5047334;28;20987;-78
2023/09/13 08:22:47;;;;;;;9.87;7.03;;;;;;;;;;5053936;28;20449;-78
2023/09/13 08:25:14;;;;;;;9.60;6.57;;;;;;;;;;5057574;28;20821;-78
2023/09/13 08:27:42;;;;;;;8.60;6.77;;;;;;;;;;5045790;28;20458;-78
2023/09/13 08:30:09;;;;;;;10.00;7.03;;;;;;;;;;5052076;28;20504;-78
2023/09/13 08:32:37;;;;;;;8.80;6.37;;;;;;;;;;5057489;28;20453;-75
2023/09/13 08:35:04;;;;;;;6.87;5.80;;;;;;;;;;5054446;28;20538;-76
2023/09/13 08:37:31;;;;;;;8.50;7.20;;;;;;;;;;5054736;28;20453;-76
2023/09/13 08:40:00;;;;;;;9.90;7.30;;;;;;;;;;5035890;28;20494;-76
2023/09/13 08:42:29;;;;;;;9.13;6.70;;;;;;;;;;5034433;28;20461;-76
2023/09/13 08:44:57;;;;;;;10.47;8.40;;;;;;;;;;5043480;28;20472;-76
2023/09/13 08:47:26;;;;;;;8.80;8.00;;;;;;;;;;5049409;28;20549;-76
2023/09/13 08:49:54;;;;;;;8.80;7.40;;;;;;;;;;5033748;28;20532;-75
2023/09/13 08:52:22;;;;;;;8.10;7.30;;;;;;;;;;5039145;28;20457;-76
2023/09/13 08:54:51;;;;;;;10.80;7.40;;;;;;;;;;5054493;28;20456;-77
2023/09/13 08:57:20;;;;;;;10.53;7.67;;;;;;;;;;5054258;28;20452;-75
2023/09/13 08:59:47;;;;;;;19.90;8.70;;;;;;;;;;5045820;28;20481;-77
2023/09/13 09:02:16;;;;;;;17.20;9.90;;;;;;;;;;5037432;28;20444;-74
2023/09/13 09:04:44;;;;;;;23.87;11.20;;;;;;;;;;5053993;28;20444;-76
2023/09/13 09:07:11;;;;;;;9.67;7.40;;;;;;;;;;5053457;28;20483;-77
2023/09/13 09:09:39;;;;;;;13.73;9.53;;;;;;;;;;5038324;28;20501;-77
2023/09/13 09:12:07;;;;;;;12.63;8.50;;;;;;;;;;5052710;28;20463;-77
2023/09/13 09:14:39;;;;;;;10.23;9.20;;;;;;;;;;5053975;28;20943;-76
2023/09/13 09:17:07;;;;;;;10.90;8.57;;;;;;;;;;5042721;28;20461;-76
2023/09/13 09:19:34;;;;;;;9.60;8.20;;;;;;;;;;5047913;28;20465;-76
2023/09/13 09:22:01;;;;;;;9.10;7.90;;;;;;;;;;5053587;28;20460;-76
2023/09/13 09:24:29;;;;;;;8.70;7.90;;;;;;;;;;5053802;28;20455;-77
2023/09/13 09:26:56;;;;;;;9.67;7.40;;;;;;;;;;5043946;28;20909;-77
2023/09/13 09:29:34;;;;;;;12.37;8.23;;;;;;;;;;5038475;28;20457;-78
2023/09/13 09:32:08;;;;;;;12.10;8.90;;;;;;;;;;5048846;28;20799;-77
2023/09/13 09:34:38;;;;;;;11.57;9.60;;;;;;;;;;5051989;28;20465;-78
2023/09/13 09:37:08;;;;;;;8.00;7.30;;;;;;;;;;5055554;28;20449;-76
2023/09/13 09:39:38;;;;;;;9.17;8.20;;;;;;;;;;5045001;28;20477;-77
2023/09/13 09:42:06;;;;;;;10.50;7.20;;;;;;;;;;5045168;28;20464;-77
2023/09/13 09:44:33;;;;;;;8.87;8.07;;;;;;;;;;5053516;28;20449;-77
2023/09/13 09:47:00;;;;;;;11.37;9.10;;;;;;;;;;5052065;28;20448;-77
2023/09/13 09:49:29;;;;;;;10.57;8.90;;;;;;;;;;5046847;28;20898;-78
2023/09/13 09:51:56;;;;;;;11.20;7.90;;;;;;;;;;5044906;28;20461;-77
2023/09/13 09:54:24;;;;;;;11.93;8.87;;;;;;;;;;5048253;28;20462;-77
2023/09/13 09:56:53;;;;;;;11.23;8.47;;;;;;;;;;5041668;28;20456;-77
2023/09/13 09:59:20;;;;;;;11.03;9.20;;;;;;;;;;5052472;28;20462;-76
2023/09/13 10:01:48;;;;;;;9.77;7.40;;;;;;;;;;5044428;28;20454;-76
2023/09/13 10:04:16;;;;;;;12.30;8.00;;;;;;;;;;5052668;28;20517;-76
2023/09/13 10:06:59;;;;;;;9.70;8.00;;;;;;;;;;5036968;28;20553;-76
2023/09/13 10:09:37;;;;;;;14.00;10.30;;;;;;;;;;5032046;28;20874;-76
2023/09/13 10:12:04;;;;;;;8.30;6.33;;;;;;;;;;5052427;28;20436;-76
2023/09/13 10:14:32;;;;;;;10.27;7.03;;;;;;;;;;5052215;28;20875;-76
2023/09/13 10:16:59;;;;;;;7.10;6.40;;;;;;;;;;5036266;28;20519;-75
2023/09/13 10:19:28;;;;;;;5.80;5.20;;;;;;;;;;5043840;28;20480;-76
2023/09/13 10:21:56;;;;;;;7.97;6.60;;;;;;;;;;5044483;28;20453;-77
2023/09/13 10:24:25;;;;;;;12.10;7.20;;;;;;;;;;5061068;28;20494;-80
2023/09/13 10:26:54;;;;;;;13.43;7.63;;;;;;;;;;5067744;28;20449;-80
2023/09/13 10:29:26;;;;;;;9.30;7.80;;;;;;;;;;5068530;28;20448;-80
2023/09/13 10:31:56;;;;;;;8.83;7.93;;;;;;;;;;5068636;28;20883;-80
2023/09/13 10:34:24;;;;;;;8.97;6.90;;;;;;;;;;5062201;28;20464;-79
2023/09/13 10:36:54;;;;;;;8.27;7.23;;;;;;;;;;5048344;28;20465;-80
2023/09/13 10:39:25;;;;;;;11.67;7.53;;;;;;;;;;5065978;28;20455;-78
2023/09/13 10:41:56;;;;;;;13.10;8.97;;;;;;;;;;5064783;28;20464;-78
2023/09/13 10:44:23;;;;;;;8.33;7.03;;;;;;;;;;5064381;28;20548;-78
2023/09/13 10:46:52;;;;;;;8.70;6.00;;;;;;;;;;5066791;28;20475;-78
2023/09/13 10:49:20;;;;;;;7.30;5.90;;;;;;;;;;5060014;28;20541;-79
2023/09/13 10:51:48;;;;;;;5.80;5.20;;;;;;;;;;5042612;28;20493;-79
2023/09/13 10:54:16;;;;;;;6.70;6.00;;;;;;;;;;5037614;28;20455;-79
2023/09/13 10:56:43;;;;;;;7.17;5.07;;;;;;;;;;5063447;28;20464;-80
2023/09/13 10:59:14;;;;;;;6.10;5.50;;;;;;;;;;5056228;28;20471;-80
2023/09/13 11:01:46;;;;;;;5.13;4.63;;;;;;;;;;5064099;28;20988;-80
2023/09/13 11:04:13;;;;;;;5.13;4.00;;;;;;;;;;5061021;28;20834;-79
2023/09/13 11:06:41;;;;;;;7.60;4.73;;;;;;;;;;5058403;28;20478;-78
2023/09/13 11:09:15;;;;;;;5.07;3.80;;;;;;;;;;5056085;28;20481;-78
2023/09/13 11:11:47;;;;;;;3.90;2.90;;;;;;;;;;5052039;28;20496;-78
2023/09/13 11:14:18;;;;;;;3.23;2.83;;;;;;;;;;5055898;28;20453;-75
2023/09/13 11:16:46;;;;;;;3.40;3.03;;;;;;;;;;5036873;28;20473;-78
2023/09/13 11:19:14;;;;;;;3.70;2.30;;;;;;;;;;5033171;28;21021;-76
2023/09/13 11:21:49;;;;;;;6.60;3.13;;;;;;;;;;5032183;28;20489;-76
2023/09/13 11:24:34;;;;;;;3.87;3.30;;;;;;;;;;5044318;28;20772;-76
2023/09/13 11:27:10;;;;;;;8.17;2.83;;;;;;;;;;5054110;28;20612;-78
2023/09/13 11:29:42;;;;;;;5.53;3.30;;;;;;;;;;5056513;28;20503;-77
2023/09/13 11:32:16;;;;;;;4.53;3.33;;;;;;;;;;5055025;28;20846;-78
2023/09/13 11:34:43;;;;;;;6.20;4.20;;;;;;;;;;5037742;28;20460;-77
2023/09/13 11:37:11;;;;;;;4.23;3.37;;;;;;;;;;5036319;28;20557;-77
2023/09/13 11:39:39;;;;;;;2.80;2.60;;;;;;;;;;5037229;28;20496;-77
2023/09/13 11:42:07;;;;;;;3.73;2.83;;;;;;;;;;5037805;28;20556;-77
2023/09/13 11:44:34;;;;;;;2.57;2.37;;;;;;;;;;5037698;28;20464;-77
2023/09/13 11:47:03;;;;;;;3.33;2.80;;;;;;;;;;5037914;28;20465;-77
2023/09/13 11:49:30;;;;;;;3.43;2.40;;;;;;;;;;5038359;28;20477;-77
2023/09/13 11:51:58;;;;;;;8.30;3.23;;;;;;;;;;5037810;28;20854;-77
2023/09/13 11:54:27;;;;;;;4.90;2.37;;;;;;;;;;5037109;28;20501;-77
2023/09/13 11:56:55;;;;;;;3.30;2.23;;;;;;;;;;5038109;28;20450;-77
2023/09/13 11:59:25;;;;;;;6.60;2.40;;;;;;;;;;5037143;28;20457;-77
2023/09/13 12:01:53;;;;;;;2.70;2.50;;;;;;;;;;5038402;28;20453;-77
2023/09/13 12:04:25;;;;;;;2.70;2.30;;;;;;;;;;5038486;28;20881;-83
2023/09/13 12:06:54;;;;;;;2.77;2.10;;;;;;;;;;5056079;28;20463;-77
2023/09/13 12:09:22;;;;;;;2.30;2.07;;;;;;;;;;5047382;28;20947;-76
2023/09/13 12:11:50;;;;;;;4.20;2.43;;;;;;;;;;5046674;28;20524;-77
2023/09/13 12:14:18;;;;;;;4.10;3.27;;;;;;;;;;5047042;28;20492;-75
2023/09/13 12:16:49;;;;;;;2.43;1.87;;;;;;;;;;5055544;28;20448;-77
2023/09/13 12:19:17;;;;;;;3.00;2.60;;;;;;;;;;5038807;28;20452;-75
2023/09/13 12:21:46;;;;;;;5.10;2.80;;;;;;;;;;5055078;28;20451;-76
2023/09/13 12:24:13;;;;;;;3.20;2.83;;;;;;;;;;5054392;28;20457;-76
2023/09/13 12:26:41;;;;;;;5.53;2.60;;;;;;;;;;5046248;28;20463;-76
2023/09/13 12:29:08;;;;;;;2.83;2.63;;;;;;;;;;5051594;28;20461;-77
2023/09/13 12:31:35;;;;;;;2.90;2.60;;;;;;;;;;5034445;28;20512;-74
2023/09/13 12:34:02;;;;;;;2.43;2.23;;;;;;;;;;5034311;28;20457;-76
2023/09/13 12:36:30;;;;;;;3.07;2.77;;;;;;;;;;5048124;28;20459;-75
2023/09/13 12:38:59;;;;;;;3.23;2.93;;;;;;;;;;5052505;28;20457;-75
2023/09/13 12:41:29;;;;;;;4.20;3.80;;;;;;;;;;5039162;28;20864;-75
2023/09/13 12:43:56;;;;;;;4.73;4.30;;;;;;;;;;5046035;28;20775;-75
2023/09/13 12:46:24;;;;;;;3.60;3.30;;;;;;;;;;5045670;28;20985;-75
2023/09/13 12:48:52;;;;;;;4.47;3.53;;;;;;;;;;5053889;28;20515;-75
2023/09/13 12:51:19;;;;;;;3.80;3.40;;;;;;;;;;5049739;28;20845;-75
2023/09/13 12:53:47;;;;;;;5.67;5.07;;;;;;;;;;5033853;28;20465;-75
2023/09/13 12:56:15;;;;;;;5.23;4.83;;;;;;;;;;5029147;28;20464;-75
2023/09/13 12:58:52;;;;;;;6.93;5.30;;;;;;;;;;5045473;28;20452;-75
2023/09/13 13:01:20;;;;;;;6.40;4.00;;;;;;;;;;5038990;28;20544;-75
2023/09/13 13:03:58;;;;;;;8.47;6.93;;;;;;;;;;5053729;28;20448;-75
2023/09/13 13:06:25;;;;;;;7.30;5.93;;;;;;;;;;5040618;28;20529;-76
2023/09/13 13:08:53;;;;;;;5.23;4.73;;;;;;;;;;5053065;28;20869;-76
2023/09/13 13:11:21;;;;;;;5.40;4.90;;;;;;;;;;5037711;28;20502;-75
2023/09/13 13:13:48;;;;;;;5.20;4.80;;;;;;;;;;5053412;28;20452;-75
2023/09/13 13:16:16;;;;;;;6.43;5.43;;;;;;;;;;5053641;28;20455;-75
2023/09/13 13:18:47;;;;;;;5.60;5.10;;;;;;;;;;5045982;28;20976;-75
2023/09/13 13:21:15;;;;;;;7.80;5.50;;;;;;;;;;5033432;28;20853;-75
2023/09/13 13:23:47;;;;;;;10.00;5.80;;;;;;;;;;5042129;28;20446;-75
2023/09/13 13:26:15;;;;;;;6.50;5.80;;;;;;;;;;5025485;28;20473;-75
2023/09/13 13:28:43;;;;;;;6.47;5.83;;;;;;;;;;5040922;28;20519;-75
2023/09/13 13:31:10;;;;;;;10.30;5.97;;;;;;;;;;5050165;28;20498;-76
2023/09/13 13:33:38;;;;;;;7.20;6.50;;;;;;;;;;5048693;28;20455;-76
2023/09/13 13:36:06;;;;;;;7.70;7.00;;;;;;;;;;5045047;28;20462;-76
2023/09/13 13:38:33;;;;;;;7.10;6.23;;;;;;;;;;5045059;28;20483;-75
2023/09/13 13:41:04;;;;;;;7.20;6.00;;;;;;;;;;5043043;28;20571;-75
2023/09/13 13:43:33;;;;;;;8.47;6.90;;;;;;;;;;5033783;28;20454;-76
2023/09/13 13:46:02;;;;;;;11.23;6.47;;;;;;;;;;5051425;28;20457;-76
2023/09/13 13:48:29;;;;;;;7.53;6.73;;;;;;;;;;5047443;28;20453;-75
2023/09/13 13:50:56;;;;;;;8.87;7.27;;;;;;;;;;5041281;28;20558;-76
2023/09/13 13:53:26;;;;;;;7.50;6.70;;;;;;;;;;5052745;28;20460;-75
2023/09/13 13:55:54;;;;;;;7.97;6.00;;;;;;;;;;5044827;28;20465;-77
2023/09/13 13:58:24;;;;;;;9.20;6.80;;;;;;;;;;5052766;28;20943;-76
2023/09/13 14:00:52;;;;;;;9.47;6.70;;;;;;;;;;5052183;28;20476;-76
2023/09/13 14:03:21;;;;;;;7.13;6.43;;;;;;;;;;5037183;28;20958;-76
2023/09/13 14:05:49;;;;;;;8.83;7.17;;;;;;;;;;5052778;28;20947;-75
2023/09/13 14:08:18;;;;;;;6.90;6.30;;;;;;;;;;5036832;28;20448;-77
2023/09/13 14:10:45;;;;;;;10.60;6.50;;;;;;;;;;5036775;28;20649;-77
2023/09/13 14:13:13;;;;;;;6.50;5.63;;;;;;;;;;5035929;28;20913;-77
2023/09/13 14:15:41;;;;;;;7.63;5.57;;;;;;;;;;5044707;28;20973;-77
2023/09/13 14:18:08;;;;;;;7.70;5.83;;;;;;;;;;5050130;28;20448;-78
2023/09/13 14:20:41;;;;;;;4.90;4.43;;;;;;;;;;5041012;28;20477;-78
2023/09/13 14:23:08;;;;;;;5.03;4.53;;;;;;;;;;5043865;28;20456;-77
2023/09/13 14:25:36;;;;;;;6.23;5.30;;;;;;;;;;5052640;28;20457;-77
2023/09/13 14:28:03;;;;;;;4.90;4.43;;;;;;;;;;5052739;28;20456;-77
2023/09/13 14:30:31;;;;;;;5.83;4.47;;;;;;;;;;5043628;28;20469;-81
2023/09/13 14:32:58;;;;;;;8.30;5.40;;;;;;;;;;5047317;28;20492;-82
2023/09/13 14:35:25;;;;;;;5.07;4.57;;;;;;;;;;5058396;28;20441;-81
2023/09/13 14:37:54;;;;;;;5.23;4.73;;;;;;;;;;5056547;28;20449;-81
2023/09/13 14:40:22;;;;;;;7.73;5.53;;;;;;;;;;5050420;28;20492;-81
2023/09/13 14:42:49;;;;;;;6.17;4.90;;;;;;;;;;5049510;28;20477;-80
2023/09/13 14:45:16;;;;;;;7.50;4.70;;;;;;;;;;5057832;28;20437;-81
2023/09/13 14:47:44;;;;;;;7.30;5.00;;;;;;;;;;5060759;28;20455;-79
2023/09/13 14:50:12;;;;;;;7.10;5.20;;;;;;;;;;5053160;28;20473;-79